createdAt,value
2023-05-21T00:00:43.070Z,9.52
2023-05-21T00:03:13.855Z,10.43
2023-05-21T00:05:40.774Z,8.82
2023-05-21T00:08:07.305Z,9.80
2023-05-21T00:10:33.767Z,10.00
2023-05-21T00:13:00.319Z,9.70
2023-05-21T00:15:26.719Z,9.63
2023-05-21T00:17:53.252Z,9.60
2023-05-21T00:20:19.732Z,9.50
2023-05-21T00:22:46.171Z,8.65
2023-05-21T00:25:12.539Z,9.57
2023-05-21T00:27:39.081Z,9.55
2023-05-21T00:30:05.557Z,8.38
2023-05-21T00:32:32.036Z,9.32
2023-05-21T00:34:58.468Z,9.50
2023-05-21T00:37:24.924Z,9.68
2023-05-21T00:39:52.025Z,9.40
2023-05-21T00:42:18.433Z,8.57
2023-05-21T00:44:45.576Z,7.90
2023-05-21T00:47:11.976Z,8.88
2023-05-21T00:49:38.496Z,8.88
2023-05-21T00:52:05.381Z,8.25
2023-05-21T00:54:31.817Z,8.55
2023-05-21T00:56:58.293Z,8.77
2023-05-21T00:59:24.812Z,8.05
2023-05-21T01:01:55.991Z,8.60
2023-05-21T01:04:22.525Z,15.05
2023-05-21T01:06:48.906Z,18.45
2023-05-21T01:09:15.338Z,8.57
2023-05-21T01:11:41.742Z,8.05
2023-05-21T01:14:09.423Z,8.27
2023-05-21T01:16:36.303Z,8.35
2023-05-21T01:19:03.493Z,7.68
2023-05-21T01:21:29.968Z,7.65
2023-05-21T01:23:57.316Z,7.88
2023-05-21T01:26:25.903Z,7.95
2023-05-21T01:28:52.850Z,7.75
2023-05-21T01:31:19.256Z,7.60
2023-05-21T01:33:45.879Z,7.18
2023-05-21T01:36:13.882Z,6.95
2023-05-21T01:38:40.442Z,7.25
2023-05-21T01:41:06.903Z,7.20
2023-05-21T01:43:33.326Z,7.28
2023-05-21T01:45:59.845Z,6.75
2023-05-21T01:48:26.272Z,6.43
2023-05-21T01:50:53.736Z,7.35
2023-05-21T01:53:20.166Z,6.38
2023-05-21T01:55:47.005Z,6.57
2023-05-21T01:58:13.532Z,6.10
2023-05-21T02:00:40.142Z,6.35
2023-05-21T02:03:06.744Z,6.80
2023-05-21T02:05:33.537Z,6.95
2023-05-21T02:08:00.215Z,6.57
2023-05-21T02:10:26.801Z,6.95
2023-05-21T02:12:53.343Z,6.10
2023-05-21T02:15:19.992Z,6.45
2023-05-21T02:17:46.652Z,6.50
2023-05-21T02:20:13.622Z,6.40
2023-05-21T02:22:40.176Z,6.43
2023-05-21T02:25:07.365Z,6.70
2023-05-21T02:27:35.171Z,6.53
2023-05-21T02:30:02.075Z,6.70
2023-05-21T02:32:28.941Z,6.53
2023-05-21T02:34:55.393Z,6.75
2023-05-21T02:37:21.912Z,6.35
2023-05-21T02:39:48.472Z,7.18
2023-05-21T02:42:15.067Z,6.60
2023-05-21T02:44:41.708Z,6.75
2023-05-21T02:47:10.358Z,6.28
2023-05-21T02:49:36.886Z,7.45
2023-05-21T02:52:03.336Z,6.90
2023-05-21T02:54:29.934Z,6.30
2023-05-21T02:56:56.651Z,6.38
2023-05-21T02:59:23.072Z,6.68
2023-05-21T03:01:50.039Z,6.88
2023-05-21T03:04:21.847Z,6.05
2023-05-21T03:06:48.302Z,6.45
2023-05-21T03:09:14.755Z,6.60
2023-05-21T03:11:41.257Z,6.80
2023-05-21T03:14:07.691Z,6.28
2023-05-21T03:16:34.770Z,7.15
2023-05-21T03:19:01.366Z,6.75
2023-05-21T03:21:30.172Z,6.70
2023-05-21T03:23:58.706Z,6.65
2023-05-21T03:26:27.336Z,6.43
2023-05-21T03:28:54.075Z,7.00
2023-05-21T03:31:20.921Z,7.05
2023-05-21T03:34:03.645Z,6.72
2023-05-21T03:36:31.702Z,6.93
2023-05-21T03:38:58.168Z,6.40
2023-05-21T03:41:24.631Z,7.22
2023-05-21T03:43:56.248Z,6.72
2023-05-21T03:46:27.949Z,6.35
2023-05-21T03:49:07.212Z,6.60
2023-05-21T03:51:36.035Z,6.68
2023-05-21T03:54:02.581Z,6.57
2023-05-21T03:56:29.069Z,6.38
2023-05-21T03:58:55.665Z,6.82
2023-05-21T04:01:22.754Z,6.82
2023-05-21T04:03:52.384Z,6.72
2023-05-21T04:06:22.766Z,6.78
2023-05-21T04:08:49.268Z,6.68
2023-05-21T04:11:15.718Z,6.78
2023-05-21T04:13:42.153Z,6.70
2023-05-21T04:16:09.473Z,7.32
2023-05-21T04:18:36.162Z,7.85
2023-05-21T04:21:03.027Z,6.75
2023-05-21T04:23:29.520Z,6.63
2023-05-21T04:25:57.420Z,7.72
2023-05-21T04:28:24.202Z,6.70
2023-05-21T04:30:50.773Z,7.45
2023-05-21T04:33:18.194Z,6.65
2023-05-21T04:35:45.022Z,7.28
2023-05-21T04:38:12.585Z,7.22
2023-05-21T04:40:39.084Z,6.65
2023-05-21T04:43:05.560Z,6.60
2023-05-21T04:45:32.142Z,6.72
2023-05-21T04:48:00.581Z,7.07
2023-05-21T04:50:30.815Z,6.97
2023-05-21T04:52:58.782Z,7.13
2023-05-21T04:55:25.972Z,6.85
2023-05-21T04:57:52.822Z,7.07
2023-05-21T05:00:19.327Z,6.60
2023-05-21T05:02:46.345Z,7.13
2023-05-21T05:05:12.892Z,8.18
2023-05-21T05:07:39.302Z,7.03
2023-05-21T05:10:05.739Z,7.43
2023-05-21T05:12:32.885Z,7.85
2023-05-21T05:14:59.336Z,6.40
2023-05-21T05:17:26.434Z,7.15
2023-05-21T05:19:53.188Z,7.50
2023-05-21T05:22:19.605Z,7.30
2023-05-21T05:24:46.427Z,7.78
2023-05-21T05:27:13.765Z,6.70
2023-05-21T05:29:40.170Z,7.20
2023-05-21T05:32:06.570Z,7.57
2023-05-21T05:34:32.950Z,7.05
2023-05-21T05:36:59.411Z,7.40
2023-05-21T05:39:25.833Z,7.25
2023-05-21T05:41:52.291Z,7.40
2023-05-21T05:44:18.736Z,7.25
2023-05-21T05:46:45.315Z,6.85
2023-05-21T05:49:11.778Z,7.55
2023-05-21T05:51:39.469Z,7.35
2023-05-21T05:54:06.072Z,7.53
2023-05-21T05:56:33.392Z,8.27
2023-05-21T05:58:59.814Z,7.88
2023-05-21T06:01:26.928Z,7.45
2023-05-21T06:03:53.576Z,7.82
2023-05-21T06:06:20.538Z,7.70
2023-05-21T06:08:47.368Z,7.47
2023-05-21T06:11:17.193Z,7.80
2023-05-21T06:13:44.244Z,7.60
2023-05-21T06:16:11.412Z,8.02
2023-05-21T06:18:38.037Z,7.72
2023-05-21T06:21:04.664Z,7.97
2023-05-21T06:23:32.697Z,8.10
2023-05-21T06:25:59.389Z,8.13
2023-05-21T06:28:26.636Z,8.40
2023-05-21T06:30:54.099Z,8.20
2023-05-21T06:33:21.517Z,8.50
2023-05-21T06:35:47.981Z,8.65
2023-05-21T06:38:14.623Z,8.15
2023-05-21T06:40:44.688Z,7.97
2023-05-21T06:43:15.379Z,8.90
2023-05-21T06:46:07.464Z,8.18
2023-05-21T06:48:39.439Z,7.35
2023-05-21T06:51:05.968Z,9.30
2023-05-21T06:53:32.779Z,9.00
2023-05-21T06:55:59.213Z,8.13
2023-05-21T06:58:34.888Z,8.65
2023-05-21T07:01:01.793Z,9.05
2023-05-21T07:03:29.109Z,8.35
2023-05-21T07:05:55.711Z,9.38
2023-05-21T07:08:22.148Z,11.23
2023-05-21T07:10:48.585Z,11.48
2023-05-21T07:13:15.021Z,11.23
2023-05-21T07:15:41.412Z,9.95
2023-05-21T07:18:07.890Z,9.43
2023-05-21T07:20:34.350Z,10.25
2023-05-21T07:23:04.054Z,9.45
2023-05-21T07:25:30.453Z,9.10
2023-05-21T07:27:57.119Z,9.63
2023-05-21T07:30:23.886Z,9.07
2023-05-21T07:32:50.451Z,10.27
2023-05-21T07:35:17.555Z,9.73
2023-05-21T07:37:44.008Z,9.93
2023-05-21T07:40:10.936Z,10.00
2023-05-21T07:42:38.129Z,10.18
2023-05-21T07:45:05.738Z,10.30
2023-05-21T07:47:37.270Z,9.77
2023-05-21T07:50:04.475Z,9.95
2023-05-21T07:52:31.608Z,9.68
2023-05-21T07:54:59.933Z,9.77
2023-05-21T07:57:29.862Z,10.50
2023-05-21T08:00:00.274Z,9.10
2023-05-21T08:02:29.176Z,10.13
2023-05-21T08:04:55.823Z,11.55
2023-05-21T08:07:22.269Z,11.25
2023-05-21T08:09:48.734Z,10.63
2023-05-21T08:12:16.184Z,10.50
2023-05-21T08:14:43.687Z,10.75
2023-05-21T08:17:11.724Z,9.40
2023-05-21T08:19:38.458Z,10.07
2023-05-21T08:22:08.654Z,10.52
2023-05-21T08:24:37.592Z,10.68
2023-05-21T08:27:04.117Z,10.60
2023-05-21T08:29:31.795Z,10.32
2023-05-21T08:31:59.712Z,107.90
2023-05-21T08:34:26.658Z,119.38
2023-05-21T08:37:05.571Z,14.52
2023-05-21T08:39:57.190Z,11.60
2023-05-21T08:42:35.665Z,11.75
2023-05-21T08:45:04.098Z,11.50
2023-05-21T08:47:30.480Z,19.73
2023-05-21T08:49:57.102Z,23.90
2023-05-21T08:52:23.558Z,17.13
2023-05-21T08:54:53.206Z,12.25
2023-05-21T08:57:20.226Z,11.75
2023-05-21T08:59:47.372Z,11.20
2023-05-21T09:02:21.463Z,12.23
2023-05-21T09:04:49.273Z,11.30
2023-05-21T09:07:15.976Z,11.43
2023-05-21T09:10:03.752Z,11.13
2023-05-21T09:12:30.379Z,12.57
2023-05-21T09:14:58.779Z,11.60
2023-05-21T09:17:29.852Z,11.45
2023-05-21T09:20:04.187Z,12.15
2023-05-21T09:22:30.708Z,11.93
2023-05-21T09:24:57.169Z,13.85
2023-05-21T09:27:24.099Z,14.23
2023-05-21T09:29:50.652Z,14.32
2023-05-21T09:32:17.183Z,12.18
2023-05-21T09:34:44.780Z,12.23
2023-05-21T09:37:23.665Z,11.73
2023-05-21T09:39:53.566Z,12.35
2023-05-21T09:42:20.015Z,14.02
2023-05-21T09:44:46.437Z,13.05
2023-05-21T09:47:13.299Z,16.92
2023-05-21T09:49:39.834Z,62.92
2023-05-21T09:52:06.207Z,39.30
2023-05-21T09:54:33.316Z,19.77
2023-05-21T09:56:59.696Z,13.23
2023-05-21T09:59:26.152Z,13.63
2023-05-21T10:01:53.014Z,12.55
2023-05-21T10:04:19.598Z,30.17
2023-05-21T10:06:47.744Z,31.58
2023-05-21T10:09:14.147Z,18.88
2023-05-21T10:11:40.718Z,14.20
2023-05-21T10:14:07.468Z,15.13
2023-05-21T10:16:34.023Z,13.65
2023-05-21T10:19:00.568Z,13.88
2023-05-21T10:21:27.179Z,13.27
2023-05-21T10:23:53.687Z,14.00
2023-05-21T10:26:21.694Z,14.63
2023-05-21T10:28:48.098Z,13.68
2023-05-21T10:31:14.576Z,13.77
2023-05-21T10:33:41.233Z,13.90
2023-05-21T10:36:07.695Z,13.70
2023-05-21T10:38:34.116Z,13.88
2023-05-21T10:41:00.593Z,13.30
2023-05-21T10:43:27.266Z,13.65
2023-05-21T10:45:53.948Z,14.18
2023-05-21T10:48:20.506Z,14.05
2023-05-21T10:50:47.171Z,14.90
2023-05-21T10:53:13.584Z,13.48
2023-05-21T10:55:40.316Z,22.02
2023-05-21T10:58:06.743Z,14.85
2023-05-21T11:00:33.159Z,13.80
2023-05-21T11:03:00.345Z,52.72
2023-05-21T11:05:27.900Z,48.67
2023-05-21T11:07:56.106Z,34.33
2023-05-21T11:10:22.675Z,34.78
2023-05-21T11:12:51.930Z,13.68
2023-05-21T11:15:18.299Z,13.27
2023-05-21T11:17:48.056Z,13.90
2023-05-21T11:20:15.087Z,14.50
2023-05-21T11:22:41.677Z,14.52
2023-05-21T11:25:08.429Z,14.23
2023-05-21T11:27:34.879Z,47.35
2023-05-21T11:30:01.622Z,57.30
2023-05-21T11:32:29.734Z,14.52
2023-05-21T11:34:56.223Z,12.50
2023-05-21T11:37:33.507Z,14.52
2023-05-21T11:40:02.784Z,12.63
2023-05-21T11:42:29.278Z,13.05
2023-05-21T11:44:55.928Z,13.52
2023-05-21T11:47:22.322Z,12.50
2023-05-21T11:49:49.529Z,13.15
2023-05-21T11:52:16.015Z,12.55
2023-05-21T11:54:43.941Z,12.57
2023-05-21T11:57:10.530Z,12.93
2023-05-21T11:59:36.983Z,12.48
2023-05-21T12:02:03.731Z,13.00
2023-05-21T12:04:30.135Z,12.75
2023-05-21T12:06:58.436Z,11.93
2023-05-21T12:09:24.861Z,13.15
2023-05-21T12:11:54.395Z,12.20
2023-05-21T12:14:20.999Z,13.18
2023-05-21T12:16:47.414Z,13.57
2023-05-21T12:19:13.893Z,13.27
2023-05-21T12:21:40.519Z,12.90
2023-05-21T12:24:06.935Z,12.48
2023-05-21T12:26:35.524Z,14.70
2023-05-21T12:29:01.978Z,14.35
2023-05-21T12:31:28.475Z,13.00
2023-05-21T12:33:54.933Z,13.35
2023-05-21T12:36:21.914Z,13.70
2023-05-21T12:38:48.321Z,14.15
2023-05-21T12:41:14.817Z,13.25
2023-05-21T12:43:41.210Z,13.50
2023-05-21T12:46:07.657Z,12.85
2023-05-21T12:48:34.153Z,14.32
2023-05-21T12:51:00.730Z,14.45
2023-05-21T12:53:27.131Z,13.93
2023-05-21T12:55:56.317Z,12.85
2023-05-21T12:58:22.780Z,13.23
2023-05-21T13:00:49.178Z,12.60
2023-05-21T13:03:16.477Z,12.93
2023-05-21T13:05:42.961Z,13.07
2023-05-21T13:08:10.582Z,13.38
2023-05-21T13:10:37.328Z,13.27
2023-05-21T13:13:04.045Z,12.88
2023-05-21T13:15:30.712Z,12.77
2023-05-21T13:17:57.382Z,13.35
2023-05-21T13:20:26.434Z,13.05
2023-05-21T13:22:53.195Z,14.43
2023-05-21T13:25:20.960Z,12.77
2023-05-21T13:27:47.391Z,12.65
2023-05-21T13:30:13.824Z,13.05
2023-05-21T13:32:40.408Z,11.80
2023-05-21T13:35:06.974Z,13.20
2023-05-21T13:37:33.453Z,12.52
2023-05-21T13:39:59.854Z,12.10
2023-05-21T13:42:26.279Z,12.98
2023-05-21T13:44:52.670Z,11.95
2023-05-21T13:47:19.094Z,12.13
2023-05-21T13:49:45.517Z,10.98
2023-05-21T13:52:11.954Z,11.55
2023-05-21T13:54:38.379Z,12.52
2023-05-21T13:57:04.925Z,11.40
2023-05-21T13:59:33.417Z,11.68
2023-05-21T14:02:00.328Z,12.00
2023-05-21T14:04:26.763Z,11.60
2023-05-21T14:06:53.460Z,12.27
2023-05-21T14:09:19.896Z,11.35
2023-05-21T14:11:46.373Z,11.60
2023-05-21T14:14:18.727Z,11.65
2023-05-21T14:16:45.172Z,11.40
2023-05-21T14:19:11.656Z,11.50
2023-05-21T14:21:38.051Z,11.93
2023-05-21T14:24:04.477Z,11.80
2023-05-21T14:26:30.913Z,10.63
2023-05-21T14:28:57.367Z,11.10
2023-05-21T14:31:25.042Z,11.95
2023-05-21T14:33:51.507Z,11.98
2023-05-21T14:36:18.040Z,12.20
2023-05-21T14:38:44.467Z,12.48
2023-05-21T14:41:11.010Z,11.95
2023-05-21T14:43:37.503Z,11.35
2023-05-21T14:46:04.016Z,10.90
2023-05-21T14:48:30.589Z,10.32
2023-05-21T14:50:57.036Z,10.70
2023-05-21T14:53:23.525Z,11.35
2023-05-21T14:55:49.902Z,10.68
2023-05-21T14:58:16.384Z,9.90
2023-05-21T15:00:42.931Z,10.45
2023-05-21T15:03:09.465Z,9.60
2023-05-21T15:05:36.596Z,10.43
2023-05-21T15:08:04.483Z,10.05
2023-05-21T15:10:30.901Z,10.45
2023-05-21T15:12:57.357Z,10.85
2023-05-21T15:15:23.792Z,10.45
2023-05-21T15:17:50.352Z,9.68
2023-05-21T15:20:16.846Z,10.52
2023-05-21T15:22:43.304Z,9.60
2023-05-21T15:25:09.703Z,10.82
2023-05-21T15:27:36.133Z,10.45
2023-05-21T15:30:02.855Z,10.35
2023-05-21T15:32:29.415Z,9.73
2023-05-21T15:34:55.946Z,9.82
2023-05-21T15:37:22.570Z,9.65
2023-05-21T15:39:49.104Z,10.25
2023-05-21T15:42:15.681Z,10.07
2023-05-21T15:44:42.173Z,9.50
2023-05-21T15:47:08.845Z,10.20
2023-05-21T15:49:35.435Z,9.95
2023-05-21T15:52:02.967Z,10.80
2023-05-21T15:54:29.642Z,9.95
2023-05-21T15:56:56.231Z,10.05
2023-05-21T15:59:22.651Z,10.65
2023-05-21T16:01:49.048Z,10.18
2023-05-21T16:04:20.244Z,10.13
2023-05-21T16:06:47.500Z,9.60
2023-05-21T16:09:13.960Z,10.32
2023-05-21T16:11:40.615Z,10.85
2023-05-21T16:14:07.503Z,10.80
2023-05-21T16:16:34.178Z,10.88
2023-05-21T16:19:01.473Z,10.05
2023-05-21T16:21:27.943Z,10.98
2023-05-21T16:23:54.570Z,10.75
2023-05-21T16:26:21.550Z,11.00
2023-05-21T16:28:47.964Z,11.95
2023-05-21T16:31:14.440Z,11.10
2023-05-21T16:33:41.350Z,13.35
2023-05-21T16:36:07.746Z,10.60
2023-05-21T16:38:34.284Z,10.18
2023-05-21T16:41:00.734Z,10.38
2023-05-21T16:43:27.165Z,11.50
2023-05-21T16:45:53.676Z,9.77
2023-05-21T16:48:20.354Z,10.35
2023-05-21T16:50:50.045Z,10.63
2023-05-21T16:53:16.882Z,18.05
2023-05-21T16:55:43.557Z,24.25
2023-05-21T16:58:11.028Z,11.27
2023-05-21T17:00:37.614Z,9.82
2023-05-21T17:03:04.259Z,10.88
2023-05-21T17:05:31.455Z,11.13
2023-05-21T17:07:57.982Z,11.07
2023-05-21T17:10:27.732Z,10.55
2023-05-21T17:12:54.309Z,11.40
2023-05-21T17:15:21.246Z,10.55
2023-05-21T17:17:48.115Z,11.10
2023-05-21T17:20:15.206Z,11.27
2023-05-21T17:22:41.795Z,11.07
2023-05-21T17:25:08.235Z,10.40
2023-05-21T17:27:35.372Z,10.95
2023-05-21T17:30:01.921Z,12.45
2023-05-21T17:32:28.365Z,10.68
2023-05-21T17:34:54.870Z,12.05
2023-05-21T17:37:21.290Z,11.02
2023-05-21T17:39:47.795Z,11.57
2023-05-21T17:42:14.244Z,11.25
2023-05-21T17:44:40.646Z,11.02
2023-05-21T17:47:07.191Z,11.57
2023-05-21T17:49:33.695Z,11.20
2023-05-21T17:52:00.758Z,12.80
2023-05-21T17:54:27.244Z,11.65
2023-05-21T17:56:53.704Z,11.88
2023-05-21T17:59:21.378Z,12.27
2023-05-21T18:01:47.958Z,11.65
2023-05-21T18:04:14.894Z,12.57
2023-05-21T18:06:41.342Z,12.48
2023-05-21T18:09:08.004Z,12.20
2023-05-21T18:11:34.557Z,11.80
2023-05-21T18:14:01.042Z,11.65
2023-05-21T18:16:30.372Z,11.43
2023-05-21T18:18:56.890Z,11.15
2023-05-21T18:21:23.512Z,11.65
2023-05-21T18:23:49.934Z,11.77
2023-05-21T18:26:16.433Z,12.50
2023-05-21T18:28:42.939Z,12.70
2023-05-21T18:31:09.335Z,11.95
2023-05-21T18:33:35.754Z,13.07
2023-05-21T18:36:02.265Z,12.65
2023-05-21T18:38:28.690Z,11.98
2023-05-21T18:40:55.361Z,12.50
2023-05-21T18:43:21.859Z,12.88
2023-05-21T18:45:48.475Z,12.93
2023-05-21T18:48:14.924Z,12.90
2023-05-21T18:50:41.530Z,12.50
2023-05-21T18:53:08.015Z,13.38
2023-05-21T18:55:34.415Z,12.68
2023-05-21T18:58:01.252Z,12.80
2023-05-21T19:00:27.771Z,13.10
2023-05-21T19:02:55.084Z,12.35
2023-05-21T19:05:21.801Z,12.85
2023-05-21T19:07:48.697Z,12.95
2023-05-21T19:10:15.243Z,11.90
2023-05-21T19:12:42.425Z,12.85
2023-05-21T19:15:08.846Z,13.23
2023-05-21T19:17:37.047Z,12.68
2023-05-21T19:20:05.593Z,12.52
2023-05-21T19:22:32.207Z,11.90
2023-05-21T19:24:59.062Z,12.93
2023-05-21T19:27:25.821Z,13.30
2023-05-21T19:29:52.234Z,12.98
2023-05-21T19:32:20.677Z,13.02
2023-05-21T19:34:48.199Z,13.05
2023-05-21T19:37:14.610Z,12.38
2023-05-21T19:39:41.382Z,12.98
2023-05-21T19:42:08.493Z,13.80
2023-05-21T19:44:35.105Z,14.68
2023-05-21T19:47:01.551Z,15.35
2023-05-21T19:49:27.983Z,14.80
2023-05-21T19:51:55.025Z,14.82
2023-05-21T19:54:22.646Z,16.08
2023-05-21T19:56:49.087Z,15.85
2023-05-21T19:59:15.577Z,15.77
2023-05-21T20:01:43.252Z,16.88
2023-05-21T20:04:09.844Z,16.10
2023-05-21T20:06:36.420Z,17.60
2023-05-21T20:09:02.857Z,20.98
2023-05-21T20:11:29.379Z,16.88
2023-05-21T20:13:55.845Z,16.98
2023-05-21T20:16:23.345Z,17.20
2023-05-21T20:18:50.124Z,18.02
2023-05-21T20:21:23.269Z,17.75
2023-05-21T20:23:49.849Z,18.35
2023-05-21T20:26:16.286Z,18.42
2023-05-21T20:28:42.705Z,18.70
2023-05-21T20:31:09.338Z,18.23
2023-05-21T20:33:40.978Z,20.15
2023-05-21T20:36:07.442Z,18.65
2023-05-21T20:38:34.150Z,19.75
2023-05-21T20:41:03.673Z,19.30
2023-05-21T20:43:30.110Z,20.92
2023-05-21T20:45:59.824Z,20.73
2023-05-21T20:48:29.039Z,22.17
2023-05-21T20:50:55.768Z,22.77
2023-05-21T20:53:22.570Z,23.75
2023-05-21T20:55:49.003Z,25.13
2023-05-21T20:58:15.680Z,24.27
2023-05-21T21:00:44.017Z,24.25
2023-05-21T21:03:13.375Z,22.42
2023-05-21T21:05:40.059Z,24.27
2023-05-21T21:08:08.179Z,23.63
2023-05-21T21:10:34.600Z,23.88
2023-05-21T21:13:01.159Z,24.27
2023-05-21T21:15:27.620Z,24.45
2023-05-21T21:17:54.167Z,24.60
2023-05-21T21:20:20.744Z,26.98
2023-05-21T21:22:47.175Z,25.38
2023-05-21T21:25:13.614Z,28.77
2023-05-21T21:27:40.694Z,30.23
2023-05-21T21:30:07.100Z,32.13
2023-05-21T21:32:33.899Z,27.60
2023-05-21T21:35:00.516Z,29.33
2023-05-21T21:37:29.345Z,30.15
2023-05-21T21:39:56.306Z,28.90
2023-05-21T21:42:22.944Z,26.98
2023-05-21T21:44:49.362Z,25.23
2023-05-21T21:47:15.954Z,24.35
2023-05-21T21:49:42.441Z,24.92
2023-05-21T21:52:10.860Z,25.52
2023-05-21T21:54:37.275Z,25.63
2023-05-21T21:57:03.836Z,27.50
2023-05-21T21:59:30.570Z,24.52
2023-05-21T22:01:56.981Z,26.33
2023-05-21T22:04:23.536Z,26.15
2023-05-21T22:06:49.992Z,24.33
2023-05-21T22:09:17.544Z,26.00
2023-05-21T22:11:43.974Z,25.85
2023-05-21T22:14:11.612Z,25.35
2023-05-21T22:16:38.376Z,24.45
2023-05-21T22:19:05.117Z,23.50
2023-05-21T22:21:32.987Z,22.20
2023-05-21T22:23:59.691Z,22.98
2023-05-21T22:26:26.171Z,22.27
2023-05-21T22:28:52.557Z,21.95
2023-05-21T22:31:19.110Z,22.33
2023-05-21T22:33:45.688Z,19.27
2023-05-21T22:36:12.437Z,18.60
2023-05-21T22:38:38.926Z,18.33
2023-05-21T22:41:05.506Z,17.70
2023-05-21T22:43:31.912Z,17.35
2023-05-21T22:45:58.370Z,17.05
2023-05-21T22:48:24.747Z,16.88
2023-05-21T22:50:53.450Z,17.70
2023-05-21T22:53:20.657Z,16.40
2023-05-21T22:55:47.308Z,17.58
2023-05-21T22:58:13.809Z,17.77
2023-05-21T23:00:40.755Z,18.65
2023-05-21T23:03:07.372Z,17.70
2023-05-21T23:05:33.925Z,19.13
2023-05-21T23:08:00.655Z,17.92
2023-05-21T23:10:27.176Z,18.52
2023-05-21T23:12:54.133Z,18.95
2023-05-21T23:15:21.837Z,18.98
2023-05-21T23:17:48.531Z,18.38
2023-05-21T23:20:15.463Z,18.05
2023-05-21T23:22:41.842Z,17.52
2023-05-21T23:25:08.243Z,69.45
2023-05-21T23:27:34.661Z,85.65
2023-05-21T23:30:01.204Z,70.60
2023-05-21T23:32:27.724Z,21.63
2023-05-21T23:34:54.201Z,18.52
2023-05-21T23:37:20.617Z,112.07
2023-05-21T23:39:49.532Z,34.85
2023-05-21T23:42:16.224Z,15.75
2023-05-21T23:44:42.624Z,16.50
2023-05-21T23:47:09.011Z,17.77
2023-05-21T23:49:35.470Z,15.05
2023-05-21T23:52:01.965Z,15.73
2023-05-21T23:54:28.358Z,16.02
2023-05-21T23:56:54.740Z,13.50
2023-05-21T23:59:21.246Z,13.65
